Metar z pełnej godziny Komunikat METAR ze strony awiacja.imgw.pl Metar G00 EPPO METAR EPPO 062200Z 27008KT 2400 -DZ BR OVC003 02/01 Q1011 =